sensor_id;sensor_type;location;lat;lon;timestamp;P1;durP1;ratioP1;P2;durP2;ratioP2
22260;SDS011;11299;43.202;27.920;2023-05-20T00:00:24;9.45;;;6.57;;
22260;SDS011;11299;43.202;27.920;2023-05-20T00:02:49;11.20;;;6.93;;
22260;SDS011;11299;43.202;27.920;2023-05-20T00:05:15;7.78;;;6.05;;
22260;SDS011;11299;43.202;27.920;2023-05-20T00:07:40;9.50;;;6.60;;
22260;SDS011;11299;43.202;27.920;2023-05-20T00:10:05;9.35;;;7.15;;
22260;SDS011;11299;43.202;27.920;2023-05-20T00:12:31;10.00;;;6.90;;
22260;SDS011;11299;43.202;27.920;2023-05-20T00:14:57;11.13;;;6.90;;
22260;SDS011;11299;43.202;27.920;2023-05-20T00:17:22;7.75;;;6.65;;
22260;SDS011;11299;43.202;27.920;2023-05-20T00:19:50;9.43;;;6.85;;
22260;SDS011;11299;43.202;27.920;2023-05-20T00:22:16;8.70;;;6.57;;
22260;SDS011;11299;43.202;27.920;2023-05-20T00:24:42;8.73;;;6.43;;
22260;SDS011;11299;43.202;27.920;2023-05-20T00:27:07;12.57;;;7.53;;
22260;SDS011;11299;43.202;27.920;2023-05-20T00:29:33;7.97;;;6.45;;
22260;SDS011;11299;43.202;27.920;2023-05-20T00:31:58;8.95;;;6.72;;
22260;SDS011;11299;43.202;27.920;2023-05-20T00:34:24;11.20;;;6.63;;
22260;SDS011;11299;43.202;27.920;2023-05-20T00:36:50;9.43;;;6.53;;
22260;SDS011;11299;43.202;27.920;2023-05-20T00:39:16;10.38;;;6.72;;
22260;SDS011;11299;43.202;27.920;2023-05-20T00:41:41;13.18;;;6.90;;
22260;SDS011;11299;43.202;27.920;2023-05-20T00:44:07;10.48;;;6.78;;
22260;SDS011;11299;43.202;27.920;2023-05-20T00:49:17;10.00;;;7.00;;
22260;SDS011;11299;43.202;27.920;2023-05-20T00:51:42;10.75;;;6.85;;
22260;SDS011;11299;43.202;27.920;2023-05-20T00:54:08;7.85;;;6.70;;
22260;SDS011;11299;43.202;27.920;2023-05-20T00:56:34;9.13;;;6.95;;
22260;SDS011;11299;43.202;27.920;2023-05-20T00:59:00;9.88;;;6.65;;
22260;SDS011;11299;43.202;27.920;2023-05-20T01:01:26;10.10;;;7.07;;
22260;SDS011;11299;43.202;27.920;2023-05-20T01:03:51;9.60;;;6.55;;
22260;SDS011;11299;43.202;27.920;2023-05-20T01:06:17;11.25;;;6.60;;
22260;SDS011;11299;43.202;27.920;2023-05-20T01:08:42;8.18;;;6.53;;
22260;SDS011;11299;43.202;27.920;2023-05-20T01:11:10;9.00;;;6.53;;
22260;SDS011;11299;43.202;27.920;2023-05-20T01:16:18;8.82;;;6.57;;
22260;SDS011;11299;43.202;27.920;2023-05-20T01:18:47;10.27;;;7.05;;
22260;SDS011;11299;43.202;27.920;2023-05-20T01:21:15;11.93;;;6.97;;
22260;SDS011;11299;43.202;27.920;2023-05-20T01:23:41;10.52;;;6.35;;
22260;SDS011;11299;43.202;27.920;2023-05-20T01:26:07;11.77;;;7.40;;
22260;SDS011;11299;43.202;27.920;2023-05-20T01:28:36;11.32;;;7.10;;
22260;SDS011;11299;43.202;27.920;2023-05-20T01:31:04;10.15;;;6.65;;
22260;SDS011;11299;43.202;27.920;2023-05-20T01:33:43;10.40;;;6.88;;
22260;SDS011;11299;43.202;27.920;2023-05-20T01:36:10;9.95;;;6.88;;
22260;SDS011;11299;43.202;27.920;2023-05-20T01:38:36;10.52;;;7.05;;
22260;SDS011;11299;43.202;27.920;2023-05-20T01:41:03;10.88;;;6.82;;
22260;SDS011;11299;43.202;27.920;2023-05-20T01:43:30;10.32;;;7.13;;
22260;SDS011;11299;43.202;27.920;2023-05-20T01:45:56;9.57;;;6.95;;
22260;SDS011;11299;43.202;27.920;2023-05-20T01:48:21;8.55;;;7.20;;
22260;SDS011;11299;43.202;27.920;2023-05-20T01:50:47;10.43;;;7.50;;
22260;SDS011;11299;43.202;27.920;2023-05-20T01:53:12;9.82;;;6.88;;
22260;SDS011;11299;43.202;27.920;2023-05-20T01:55:38;8.70;;;6.60;;
22260;SDS011;11299;43.202;27.920;2023-05-20T01:58:03;8.43;;;6.47;;
22260;SDS011;11299;43.202;27.920;2023-05-20T02:00:29;10.00;;;7.25;;
22260;SDS011;11299;43.202;27.920;2023-05-20T02:02:58;10.38;;;6.55;;
22260;SDS011;11299;43.202;27.920;2023-05-20T02:05:23;9.88;;;6.18;;
22260;SDS011;11299;43.202;27.920;2023-05-20T02:07:48;9.68;;;6.97;;
22260;SDS011;11299;43.202;27.920;2023-05-20T02:10:14;10.75;;;6.47;;
22260;SDS011;11299;43.202;27.920;2023-05-20T02:12:40;10.35;;;7.03;;
22260;SDS011;11299;43.202;27.920;2023-05-20T02:15:05;9.38;;;6.35;;
22260;SDS011;11299;43.202;27.920;2023-05-20T02:17:31;9.95;;;7.20;;
22260;SDS011;11299;43.202;27.920;2023-05-20T02:19:56;10.05;;;6.40;;
22260;SDS011;11299;43.202;27.920;2023-05-20T02:22:22;10.77;;;6.70;;
22260;SDS011;11299;43.202;27.920;2023-05-20T02:24:47;9.40;;;6.70;;
22260;SDS011;11299;43.202;27.920;2023-05-20T02:27:13;9.48;;;7.00;;
22260;SDS011;11299;43.202;27.920;2023-05-20T02:29:38;10.75;;;7.00;;
22260;SDS011;11299;43.202;27.920;2023-05-20T02:32:04;8.93;;;6.72;;
22260;SDS011;11299;43.202;27.920;2023-05-20T02:34:30;14.27;;;7.22;;
22260;SDS011;11299;43.202;27.920;2023-05-20T02:36:56;10.52;;;7.15;;
22260;SDS011;11299;43.202;27.920;2023-05-20T02:39:22;10.52;;;6.25;;
22260;SDS011;11299;43.202;27.920;2023-05-20T02:41:48;17.40;;;6.88;;
22260;SDS011;11299;43.202;27.920;2023-05-20T02:44:13;9.32;;;6.72;;
22260;SDS011;11299;43.202;27.920;2023-05-20T02:46:39;8.77;;;6.43;;
22260;SDS011;11299;43.202;27.920;2023-05-20T02:49:05;9.15;;;6.20;;
22260;SDS011;11299;43.202;27.920;2023-05-20T02:51:30;10.52;;;6.85;;
22260;SDS011;11299;43.202;27.920;2023-05-20T02:53:57;10.98;;;6.22;;
22260;SDS011;11299;43.202;27.920;2023-05-20T02:56:22;10.48;;;6.75;;
22260;SDS011;11299;43.202;27.920;2023-05-20T02:58:48;10.45;;;6.28;;
22260;SDS011;11299;43.202;27.920;2023-05-20T03:01:14;9.70;;;6.40;;
22260;SDS011;11299;43.202;27.920;2023-05-20T03:03:41;8.98;;;6.22;;
22260;SDS011;11299;43.202;27.920;2023-05-20T03:06:06;11.80;;;7.40;;
22260;SDS011;11299;43.202;27.920;2023-05-20T03:08:32;10.35;;;6.82;;
22260;SDS011;11299;43.202;27.920;2023-05-20T03:10:58;9.40;;;7.00;;
22260;SDS011;11299;43.202;27.920;2023-05-20T03:13:25;9.93;;;7.20;;
22260;SDS011;11299;43.202;27.920;2023-05-20T03:15:50;9.52;;;6.93;;
22260;SDS011;11299;43.202;27.920;2023-05-20T03:18:16;11.10;;;7.07;;
22260;SDS011;11299;43.202;27.920;2023-05-20T03:20:42;10.50;;;6.90;;
22260;SDS011;11299;43.202;27.920;2023-05-20T03:23:08;11.25;;;6.68;;
22260;SDS011;11299;43.202;27.920;2023-05-20T03:25:34;12.70;;;7.00;;
22260;SDS011;11299;43.202;27.920;2023-05-20T03:28:00;13.05;;;7.53;;
22260;SDS011;11299;43.202;27.920;2023-05-20T03:30:26;11.27;;;7.10;;
22260;SDS011;11299;43.202;27.920;2023-05-20T03:32:53;13.07;;;7.03;;
22260;SDS011;11299;43.202;27.920;2023-05-20T03:35:20;11.55;;;7.05;;
22260;SDS011;11299;43.202;27.920;2023-05-20T03:37:46;10.25;;;7.32;;
22260;SDS011;11299;43.202;27.920;2023-05-20T03:40:11;10.77;;;6.22;;
22260;SDS011;11299;43.202;27.920;2023-05-20T03:42:37;11.90;;;6.85;;
22260;SDS011;11299;43.202;27.920;2023-05-20T03:45:03;10.13;;;6.45;;
22260;SDS011;11299;43.202;27.920;2023-05-20T03:47:29;10.82;;;6.68;;
22260;SDS011;11299;43.202;27.920;2023-05-20T03:49:54;7.95;;;6.30;;
22260;SDS011;11299;43.202;27.920;2023-05-20T03:52:20;8.57;;;6.10;;
22260;SDS011;11299;43.202;27.920;2023-05-20T03:54:45;9.32;;;6.32;;
22260;SDS011;11299;43.202;27.920;2023-05-20T03:57:11;8.43;;;5.82;;
22260;SDS011;11299;43.202;27.920;2023-05-20T03:59:36;9.43;;;5.75;;
22260;SDS011;11299;43.202;27.920;2023-05-20T04:02:02;11.88;;;5.70;;
22260;SDS011;11299;43.202;27.920;2023-05-20T04:04:28;9.73;;;6.35;;
22260;SDS011;11299;43.202;27.920;2023-05-20T04:06:54;11.20;;;6.65;;
22260;SDS011;11299;43.202;27.920;2023-05-20T04:09:28;11.35;;;6.10;;
22260;SDS011;11299;43.202;27.920;2023-05-20T04:11:54;8.90;;;6.07;;
22260;SDS011;11299;43.202;27.920;2023-05-20T04:14:19;10.10;;;6.85;;
22260;SDS011;11299;43.202;27.920;2023-05-20T04:16:45;11.32;;;6.50;;
22260;SDS011;11299;43.202;27.920;2023-05-20T04:19:11;11.63;;;6.57;;
22260;SDS011;11299;43.202;27.920;2023-05-20T04:21:36;9.13;;;6.93;;
22260;SDS011;11299;43.202;27.920;2023-05-20T04:24:02;11.25;;;6.38;;
22260;SDS011;11299;43.202;27.920;2023-05-20T04:26:28;13.77;;;7.03;;
22260;SDS011;11299;43.202;27.920;2023-05-20T04:28:53;13.75;;;7.10;;
22260;SDS011;11299;43.202;27.920;2023-05-20T04:31:22;10.82;;;6.65;;
22260;SDS011;11299;43.202;27.920;2023-05-20T04:33:51;17.42;;;7.22;;
22260;SDS011;11299;43.202;27.920;2023-05-20T04:36:17;8.70;;;6.97;;
22260;SDS011;11299;43.202;27.920;2023-05-20T04:38:43;9.32;;;7.05;;
22260;SDS011;11299;43.202;27.920;2023-05-20T04:41:08;8.95;;;6.95;;
22260;SDS011;11299;43.202;27.920;2023-05-20T04:43:34;32.90;;;21.63;;
22260;SDS011;11299;43.202;27.920;2023-05-20T04:46:02;12.02;;;7.93;;
22260;SDS011;11299;43.202;27.920;2023-05-20T04:48:30;12.82;;;7.93;;
22260;SDS011;11299;43.202;27.920;2023-05-20T04:50:56;12.98;;;7.38;;
22260;SDS011;11299;43.202;27.920;2023-05-20T04:53:22;8.90;;;7.32;;
22260;SDS011;11299;43.202;27.920;2023-05-20T04:55:47;11.93;;;7.60;;
22260;SDS011;11299;43.202;27.920;2023-05-20T04:58:20;11.23;;;7.75;;
22260;SDS011;11299;43.202;27.920;2023-05-20T05:00:48;12.43;;;7.80;;
22260;SDS011;11299;43.202;27.920;2023-05-20T05:03:15;10.27;;;7.45;;
22260;SDS011;11299;43.202;27.920;2023-05-20T05:05:41;11.13;;;7.35;;
22260;SDS011;11299;43.202;27.920;2023-05-20T05:08:07;9.40;;;7.43;;
22260;SDS011;11299;43.202;27.920;2023-05-20T05:10:35;12.27;;;7.65;;
22260;SDS011;11299;43.202;27.920;2023-05-20T05:13:01;10.68;;;7.85;;
22260;SDS011;11299;43.202;27.920;2023-05-20T05:15:27;10.05;;;8.50;;
22260;SDS011;11299;43.202;27.920;2023-05-20T05:17:52;12.73;;;7.72;;
22260;SDS011;11299;43.202;27.920;2023-05-20T05:20:18;17.15;;;7.78;;
22260;SDS011;11299;43.202;27.920;2023-05-20T05:22:44;9.65;;;7.43;;
22260;SDS011;11299;43.202;27.920;2023-05-20T05:25:10;11.38;;;8.00;;
22260;SDS011;11299;43.202;27.920;2023-05-20T05:27:36;11.38;;;8.85;;
22260;SDS011;11299;43.202;27.920;2023-05-20T05:30:02;9.23;;;7.80;;
22260;SDS011;11299;43.202;27.920;2023-05-20T05:32:29;10.20;;;7.70;;
22260;SDS011;11299;43.202;27.920;2023-05-20T05:34:55;12.48;;;7.78;;
22260;SDS011;11299;43.202;27.920;2023-05-20T05:37:20;12.80;;;7.32;;
22260;SDS011;11299;43.202;27.920;2023-05-20T05:39:46;11.27;;;8.07;;
22260;SDS011;11299;43.202;27.920;2023-05-20T05:42:11;11.43;;;8.02;;
22260;SDS011;11299;43.202;27.920;2023-05-20T05:44:37;10.50;;;7.20;;
22260;SDS011;11299;43.202;27.920;2023-05-20T05:47:02;10.07;;;7.40;;
22260;SDS011;11299;43.202;27.920;2023-05-20T05:49:28;10.88;;;7.55;;
22260;SDS011;11299;43.202;27.920;2023-05-20T05:51:53;12.10;;;8.07;;
22260;SDS011;11299;43.202;27.920;2023-05-20T05:54:19;14.40;;;7.40;;
22260;SDS011;11299;43.202;27.920;2023-05-20T05:56:45;13.93;;;8.82;;
22260;SDS011;11299;43.202;27.920;2023-05-20T05:59:11;15.07;;;8.77;;
22260;SDS011;11299;43.202;27.920;2023-05-20T06:01:36;12.70;;;8.48;;
22260;SDS011;11299;43.202;27.920;2023-05-20T06:04:02;10.60;;;7.70;;
22260;SDS011;11299;43.202;27.920;2023-05-20T06:06:27;14.65;;;7.97;;
22260;SDS011;11299;43.202;27.920;2023-05-20T06:08:53;11.95;;;8.00;;
22260;SDS011;11299;43.202;27.920;2023-05-20T06:11:18;10.88;;;7.75;;
22260;SDS011;11299;43.202;27.920;2023-05-20T06:13:44;13.05;;;7.63;;
22260;SDS011;11299;43.202;27.920;2023-05-20T06:16:10;9.77;;;6.35;;
22260;SDS011;11299;43.202;27.920;2023-05-20T06:18:35;16.38;;;6.45;;
22260;SDS011;11299;43.202;27.920;2023-05-20T06:21:01;9.82;;;6.28;;
22260;SDS011;11299;43.202;27.920;2023-05-20T06:23:27;13.50;;;6.95;;
22260;SDS011;11299;43.202;27.920;2023-05-20T06:25:56;8.98;;;6.22;;
22260;SDS011;11299;43.202;27.920;2023-05-20T06:28:22;9.65;;;6.93;;
22260;SDS011;11299;43.202;27.920;2023-05-20T06:30:47;12.10;;;6.85;;
22260;SDS011;11299;43.202;27.920;2023-05-20T06:33:12;9.75;;;5.57;;
22260;SDS011;11299;43.202;27.920;2023-05-20T06:35:38;8.82;;;6.45;;
22260;SDS011;11299;43.202;27.920;2023-05-20T06:38:03;8.07;;;5.97;;
22260;SDS011;11299;43.202;27.920;2023-05-20T06:40:29;10.13;;;5.75;;
22260;SDS011;11299;43.202;27.920;2023-05-20T06:42:55;7.55;;;5.18;;
22260;SDS011;11299;43.202;27.920;2023-05-20T06:45:20;9.45;;;5.57;;
22260;SDS011;11299;43.202;27.920;2023-05-20T06:47:46;8.25;;;5.05;;
22260;SDS011;11299;43.202;27.920;2023-05-20T06:50:13;7.88;;;5.15;;
22260;SDS011;11299;43.202;27.920;2023-05-20T06:52:39;8.38;;;6.50;;
22260;SDS011;11299;43.202;27.920;2023-05-20T06:55:05;8.77;;;5.25;;
22260;SDS011;11299;43.202;27.920;2023-05-20T06:57:31;8.27;;;5.57;;
22260;SDS011;11299;43.202;27.920;2023-05-20T06:59:58;7.22;;;5.00;;
22260;SDS011;11299;43.202;27.920;2023-05-20T07:02:23;8.13;;;5.13;;
22260;SDS011;11299;43.202;27.920;2023-05-20T07:04:49;9.82;;;5.50;;
22260;SDS011;11299;43.202;27.920;2023-05-20T07:07:14;12.18;;;5.22;;
22260;SDS011;11299;43.202;27.920;2023-05-20T07:09:41;8.35;;;5.05;;
22260;SDS011;11299;43.202;27.920;2023-05-20T07:12:07;8.50;;;5.22;;
22260;SDS011;11299;43.202;27.920;2023-05-20T07:14:33;11.05;;;5.80;;
22260;SDS011;11299;43.202;27.920;2023-05-20T07:16:58;7.63;;;5.60;;
22260;SDS011;11299;43.202;27.920;2023-05-20T07:19:23;9.20;;;5.88;;
22260;SDS011;11299;43.202;27.920;2023-05-20T07:21:49;7.50;;;5.03;;
22260;SDS011;11299;43.202;27.920;2023-05-20T07:24:15;11.13;;;6.00;;
22260;SDS011;11299;43.202;27.920;2023-05-20T07:26:40;7.90;;;5.85;;
22260;SDS011;11299;43.202;27.920;2023-05-20T07:29:06;9.23;;;6.50;;
22260;SDS011;11299;43.202;27.920;2023-05-20T07:31:34;9.05;;;6.25;;
22260;SDS011;11299;43.202;27.920;2023-05-20T07:33:59;12.05;;;6.32;;
22260;SDS011;11299;43.202;27.920;2023-05-20T07:36:26;9.50;;;6.15;;
22260;SDS011;11299;43.202;27.920;2023-05-20T07:38:52;9.75;;;5.60;;
22260;SDS011;11299;43.202;27.920;2023-05-20T07:41:17;8.60;;;6.63;;
22260;SDS011;11299;43.202;27.920;2023-05-20T07:43:43;8.90;;;6.40;;
22260;SDS011;11299;43.202;27.920;2023-05-20T07:46:08;11.00;;;6.07;;
22260;SDS011;11299;43.202;27.920;2023-05-20T07:48:34;9.80;;;5.95;;
22260;SDS011;11299;43.202;27.920;2023-05-20T07:51:00;9.13;;;5.80;;
22260;SDS011;11299;43.202;27.920;2023-05-20T07:53:25;8.00;;;6.43;;
22260;SDS011;11299;43.202;27.920;2023-05-20T07:55:51;8.63;;;6.43;;
22260;SDS011;11299;43.202;27.920;2023-05-20T07:58:16;10.43;;;7.15;;
22260;SDS011;11299;43.202;27.920;2023-05-20T08:00:43;12.40;;;8.93;;
22260;SDS011;11299;43.202;27.920;2023-05-20T08:03:09;9.98;;;6.57;;
22260;SDS011;11299;43.202;27.920;2023-05-20T08:05:36;10.77;;;6.93;;
22260;SDS011;11299;43.202;27.920;2023-05-20T08:08:02;10.70;;;7.30;;
22260;SDS011;11299;43.202;27.920;2023-05-20T08:10:27;10.48;;;7.68;;
22260;SDS011;11299;43.202;27.920;2023-05-20T08:12:53;13.38;;;8.85;;
22260;SDS011;11299;43.202;27.920;2023-05-20T08:15:18;13.05;;;7.40;;
22260;SDS011;11299;43.202;27.920;2023-05-20T08:17:44;10.95;;;8.02;;
22260;SDS011;11299;43.202;27.920;2023-05-20T08:20:10;11.13;;;8.52;;
22260;SDS011;11299;43.202;27.920;2023-05-20T08:22:36;10.77;;;8.35;;
22260;SDS011;11299;43.202;27.920;2023-05-20T08:25:02;14.45;;;8.70;;
22260;SDS011;11299;43.202;27.920;2023-05-20T08:27:28;10.60;;;8.20;;
22260;SDS011;11299;43.202;27.920;2023-05-20T08:29:54;10.98;;;8.52;;
22260;SDS011;11299;43.202;27.920;2023-05-20T08:32:20;12.05;;;9.57;;
22260;SDS011;11299;43.202;27.920;2023-05-20T08:34:45;13.02;;;9.10;;
22260;SDS011;11299;43.202;27.920;2023-05-20T08:37:13;12.80;;;8.77;;
22260;SDS011;11299;43.202;27.920;2023-05-20T08:39:38;12.50;;;9.40;;
22260;SDS011;11299;43.202;27.920;2023-05-20T08:42:04;17.27;;;10.70;;
22260;SDS011;11299;43.202;27.920;2023-05-20T08:44:31;16.13;;;9.70;;
22260;SDS011;11299;43.202;27.920;2023-05-20T08:46:58;17.65;;;10.88;;
22260;SDS011;11299;43.202;27.920;2023-05-20T08:49:25;12.98;;;9.30;;
22260;SDS011;11299;43.202;27.920;2023-05-20T08:51:50;15.15;;;10.55;;
22260;SDS011;11299;43.202;27.920;2023-05-20T08:54:16;16.23;;;10.93;;
22260;SDS011;11299;43.202;27.920;2023-05-20T08:56:44;13.70;;;10.73;;
22260;SDS011;11299;43.202;27.920;2023-05-20T08:59:09;13.65;;;10.02;;
22260;SDS011;11299;43.202;27.920;2023-05-20T09:01:36;11.18;;;9.63;;
22260;SDS011;11299;43.202;27.920;2023-05-20T09:04:07;15.38;;;10.07;;
22260;SDS011;11299;43.202;27.920;2023-05-20T09:06:43;15.07;;;10.40;;
22260;SDS011;11299;43.202;27.920;2023-05-20T09:09:10;13.55;;;10.65;;
22260;SDS011;11299;43.202;27.920;2023-05-20T09:11:36;16.58;;;11.32;;
22260;SDS011;11299;43.202;27.920;2023-05-20T09:14:02;15.38;;;11.05;;
22260;SDS011;11299;43.202;27.920;2023-05-20T09:16:27;16.02;;;11.18;;
22260;SDS011;11299;43.202;27.920;2023-05-20T09:18:55;14.57;;;10.65;;
22260;SDS011;11299;43.202;27.920;2023-05-20T09:21:27;15.77;;;11.45;;
22260;SDS011;11299;43.202;27.920;2023-05-20T09:23:54;14.20;;;10.98;;
22260;SDS011;11299;43.202;27.920;2023-05-20T09:26:25;15.52;;;11.35;;
22260;SDS011;11299;43.202;27.920;2023-05-20T09:28:54;16.92;;;11.43;;
22260;SDS011;11299;43.202;27.920;2023-05-20T09:31:20;18.02;;;12.10;;
22260;SDS011;11299;43.202;27.920;2023-05-20T09:33:50;15.00;;;11.43;;
22260;SDS011;11299;43.202;27.920;2023-05-20T09:36:16;16.38;;;11.88;;
22260;SDS011;11299;43.202;27.920;2023-05-20T09:38:45;19.40;;;12.73;;
22260;SDS011;11299;43.202;27.920;2023-05-20T09:41:14;15.77;;;11.90;;
22260;SDS011;11299;43.202;27.920;2023-05-20T09:43:40;18.00;;;13.05;;
22260;SDS011;11299;43.202;27.920;2023-05-20T09:46:06;19.52;;;13.32;;
22260;SDS011;11299;43.202;27.920;2023-05-20T09:48:34;17.27;;;11.68;;
22260;SDS011;11299;43.202;27.920;2023-05-20T09:51:01;15.35;;;11.60;;
22260;SDS011;11299;43.202;27.920;2023-05-20T09:53:28;15.10;;;11.80;;
22260;SDS011;11299;43.202;27.920;2023-05-20T09:55:54;15.82;;;11.75;;
22260;SDS011;11299;43.202;27.920;2023-05-20T09:58:19;18.60;;;11.68;;
22260;SDS011;11299;43.202;27.920;2023-05-20T10:00:46;18.00;;;11.45;;
22260;SDS011;11299;43.202;27.920;2023-05-20T10:03:12;16.30;;;11.50;;
22260;SDS011;11299;43.202;27.920;2023-05-20T10:05:39;20.00;;;12.20;;
22260;SDS011;11299;43.202;27.920;2023-05-20T10:08:16;15.85;;;11.65;;
22260;SDS011;11299;43.202;27.920;2023-05-20T10:11:05;15.18;;;11.50;;
22260;SDS011;11299;43.202;27.920;2023-05-20T10:16:25;19.15;;;11.75;;
22260;SDS011;11299;43.202;27.920;2023-05-20T10:19:26;15.98;;;9.88;;
22260;SDS011;11299;43.202;27.920;2023-05-20T10:22:06;13.40;;;10.27;;
22260;SDS011;11299;43.202;27.920;2023-05-20T10:24:34;15.90;;;11.18;;
22260;SDS011;11299;43.202;27.920;2023-05-20T10:27:09;12.65;;;10.20;;
22260;SDS011;11299;43.202;27.920;2023-05-20T10:29:42;15.05;;;10.73;;
22260;SDS011;11299;43.202;27.920;2023-05-20T10:35:06;15.18;;;10.38;;
22260;SDS011;11299;43.202;27.920;2023-05-20T10:37:40;15.65;;;8.82;;
22260;SDS011;11299;43.202;27.920;2023-05-20T10:40:09;12.82;;;9.20;;
22260;SDS011;11299;43.202;27.920;2023-05-20T10:42:35;20.10;;;9.13;;
22260;SDS011;11299;43.202;27.920;2023-05-20T10:45:01;15.38;;;9.27;;
22260;SDS011;11299;43.202;27.920;2023-05-20T10:47:27;12.50;;;8.63;;
22260;SDS011;11299;43.202;27.920;2023-05-20T10:49:53;13.32;;;8.40;;
22260;SDS011;11299;43.202;27.920;2023-05-20T10:52:19;14.02;;;7.80;;
22260;SDS011;11299;43.202;27.920;2023-05-20T10:57:24;14.63;;;6.60;;
22260;SDS011;11299;43.202;27.920;2023-05-20T10:59:51;10.13;;;5.95;;
22260;SDS011;11299;43.202;27.920;2023-05-20T11:02:17;9.20;;;5.45;;
22260;SDS011;11299;43.202;27.920;2023-05-20T11:04:44;7.32;;;4.93;;
22260;SDS011;11299;43.202;27.920;2023-05-20T11:07:11;9.18;;;5.22;;
22260;SDS011;11299;43.202;27.920;2023-05-20T11:09:37;12.32;;;5.75;;
22260;SDS011;11299;43.202;27.920;2023-05-20T11:12:03;10.13;;;6.60;;
22260;SDS011;11299;43.202;27.920;2023-05-20T11:14:29;10.20;;;6.00;;
22260;SDS011;11299;43.202;27.920;2023-05-20T11:16:55;8.93;;;5.90;;
22260;SDS011;11299;43.202;27.920;2023-05-20T11:19:22;18.40;;;7.13;;
22260;SDS011;11299;43.202;27.920;2023-05-20T11:21:47;8.57;;;5.30;;
22260;SDS011;11299;43.202;27.920;2023-05-20T11:24:13;10.35;;;5.32;;
22260;SDS011;11299;43.202;27.920;2023-05-20T11:26:46;9.27;;;6.10;;
22260;SDS011;11299;43.202;27.920;2023-05-20T11:29:11;10.40;;;5.20;;
22260;SDS011;11299;43.202;27.920;2023-05-20T11:31:37;10.57;;;5.40;;
22260;SDS011;11299;43.202;27.920;2023-05-20T11:34:03;7.22;;;5.32;;
22260;SDS011;11299;43.202;27.920;2023-05-20T11:36:28;10.48;;;5.95;;
22260;SDS011;11299;43.202;27.920;2023-05-20T11:38:58;9.32;;;5.78;;
22260;SDS011;11299;43.202;27.920;2023-05-20T11:41:24;9.05;;;5.53;;
22260;SDS011;11299;43.202;27.920;2023-05-20T11:43:57;10.23;;;5.32;;
22260;SDS011;11299;43.202;27.920;2023-05-20T11:46:23;10.23;;;5.32;;
22260;SDS011;11299;43.202;27.920;2023-05-20T11:48:53;8.82;;;5.10;;
22260;SDS011;11299;43.202;27.920;2023-05-20T11:51:22;10.27;;;6.10;;
22260;SDS011;11299;43.202;27.920;2023-05-20T11:53:51;13.30;;;8.18;;
22260;SDS011;11299;43.202;27.920;2023-05-20T11:56:16;13.23;;;7.28;;
22260;SDS011;11299;43.202;27.920;2023-05-20T11:58:42;9.48;;;6.55;;
22260;SDS011;11299;43.202;27.920;2023-05-20T12:01:08;9.88;;;6.78;;
22260;SDS011;11299;43.202;27.920;2023-05-20T12:03:34;11.98;;;8.18;;
22260;SDS011;11299;43.202;27.920;2023-05-20T12:06:00;9.95;;;6.38;;
22260;SDS011;11299;43.202;27.920;2023-05-20T12:08:27;9.80;;;6.55;;
22260;SDS011;11299;43.202;27.920;2023-05-20T12:10:53;8.45;;;5.60;;
22260;SDS011;11299;43.202;27.920;2023-05-20T12:13:18;7.85;;;5.43;;
22260;SDS011;11299;43.202;27.920;2023-05-20T12:15:44;9.70;;;6.22;;
22260;SDS011;11299;43.202;27.920;2023-05-20T12:18:09;7.28;;;5.60;;
22260;SDS011;11299;43.202;27.920;2023-05-20T12:20:35;11.30;;;5.45;;
22260;SDS011;11299;43.202;27.920;2023-05-20T12:23:01;13.18;;;6.28;;
22260;SDS011;11299;43.202;27.920;2023-05-20T12:25:26;9.90;;;6.03;;
22260;SDS011;11299;43.202;27.920;2023-05-20T12:27:53;6.80;;;5.07;;
22260;SDS011;11299;43.202;27.920;2023-05-20T12:30:19;8.45;;;6.03;;
22260;SDS011;11299;43.202;27.920;2023-05-20T12:32:46;9.60;;;5.78;;
22260;SDS011;11299;43.202;27.920;2023-05-20T12:35:13;10.23;;;5.63;;
22260;SDS011;11299;43.202;27.920;2023-05-20T12:37:39;9.88;;;6.13;;
22260;SDS011;11299;43.202;27.920;2023-05-20T12:40:06;10.82;;;5.80;;
22260;SDS011;11299;43.202;27.920;2023-05-20T12:42:36;13.77;;;6.68;;
22260;SDS011;11299;43.202;27.920;2023-05-20T12:45:02;11.15;;;6.00;;
22260;SDS011;11299;43.202;27.920;2023-05-20T12:47:28;12.40;;;5.80;;
22260;SDS011;11299;43.202;27.920;2023-05-20T12:49:55;9.65;;;6.03;;
22260;SDS011;11299;43.202;27.920;2023-05-20T12:52:20;13.48;;;6.40;;
22260;SDS011;11299;43.202;27.920;2023-05-20T12:54:46;9.00;;;6.05;;
22260;SDS011;11299;43.202;27.920;2023-05-20T12:57:11;11.30;;;5.95;;
22260;SDS011;11299;43.202;27.920;2023-05-20T12:59:37;11.73;;;5.97;;
22260;SDS011;11299;43.202;27.920;2023-05-20T13:02:02;15.52;;;7.10;;
22260;SDS011;11299;43.202;27.920;2023-05-20T13:04:28;9.77;;;7.10;;
22260;SDS011;11299;43.202;27.920;2023-05-20T13:06:53;13.98;;;7.40;;
22260;SDS011;11299;43.202;27.920;2023-05-20T13:09:19;12.40;;;6.38;;
22260;SDS011;11299;43.202;27.920;2023-05-20T13:11:44;11.20;;;6.80;;
22260;SDS011;11299;43.202;27.920;2023-05-20T13:14:10;12.10;;;6.95;;
22260;SDS011;11299;43.202;27.920;2023-05-20T13:16:36;13.48;;;7.18;;
22260;SDS011;11299;43.202;27.920;2023-05-20T13:19:01;14.68;;;6.82;;
22260;SDS011;11299;43.202;27.920;2023-05-20T13:21:27;14.73;;;6.55;;
22260;SDS011;11299;43.202;27.920;2023-05-20T13:23:52;13.15;;;6.53;;
22260;SDS011;11299;43.202;27.920;2023-05-20T13:26:18;21.33;;;8.07;;
22260;SDS011;11299;43.202;27.920;2023-05-20T13:28:43;11.75;;;6.38;;
22260;SDS011;11299;43.202;27.920;2023-05-20T13:31:09;9.45;;;5.97;;
22260;SDS011;11299;43.202;27.920;2023-05-20T13:33:34;14.80;;;6.88;;
22260;SDS011;11299;43.202;27.920;2023-05-20T13:36:00;10.75;;;6.47;;
22260;SDS011;11299;43.202;27.920;2023-05-20T13:38:26;10.63;;;6.82;;
22260;SDS011;11299;43.202;27.920;2023-05-20T13:40:51;13.52;;;6.88;;
22260;SDS011;11299;43.202;27.920;2023-05-20T13:43:17;14.85;;;6.45;;
22260;SDS011;11299;43.202;27.920;2023-05-20T13:45:43;15.15;;;7.53;;
22260;SDS011;11299;43.202;27.920;2023-05-20T13:48:08;16.75;;;6.78;;
22260;SDS011;11299;43.202;27.920;2023-05-20T13:50:33;14.25;;;7.35;;
22260;SDS011;11299;43.202;27.920;2023-05-20T13:52:59;15.20;;;6.70;;
22260;SDS011;11299;43.202;27.920;2023-05-20T13:55:25;12.55;;;5.88;;
22260;SDS011;11299;43.202;27.920;2023-05-20T13:57:50;12.57;;;6.30;;
22260;SDS011;11299;43.202;27.920;2023-05-20T14:00:18;16.90;;;7.10;;
22260;SDS011;11299;43.202;27.920;2023-05-20T14:02:44;13.85;;;7.18;;
22260;SDS011;11299;43.202;27.920;2023-05-20T14:05:09;19.10;;;6.43;;
22260;SDS011;11299;43.202;27.920;2023-05-20T14:07:35;10.30;;;6.40;;
22260;SDS011;11299;43.202;27.920;2023-05-20T14:10:00;15.82;;;6.35;;
22260;SDS011;11299;43.202;27.920;2023-05-20T14:12:26;13.07;;;6.20;;
22260;SDS011;11299;43.202;27.920;2023-05-20T14:14:52;15.82;;;6.70;;
22260;SDS011;11299;43.202;27.920;2023-05-20T14:17:17;8.98;;;6.03;;
22260;SDS011;11299;43.202;27.920;2023-05-20T14:19:43;11.57;;;6.53;;
22260;SDS011;11299;43.202;27.920;2023-05-20T14:22:08;13.05;;;6.38;;
22260;SDS011;11299;43.202;27.920;2023-05-20T14:24:34;11.68;;;6.00;;
22260;SDS011;11299;43.202;27.920;2023-05-20T14:26:59;16.08;;;6.47;;
22260;SDS011;11299;43.202;27.920;2023-05-20T14:29:25;10.95;;;6.47;;
22260;SDS011;11299;43.202;27.920;2023-05-20T14:31:50;15.38;;;7.05;;